Charlevoix, Michigan
Current Conditions -  °F | °C
As of 5:34 AM on Tuesday 27 Jan 2015 (Local Time) from KCVX Reporting Station
Clear Clear  
Wind Chill: 15°   Ceiling: Unl
Heat Index: 15°   Visibility: 10mi
Dew Point: 10°   Wind: 0mph
Humidity: 82%   Direction: NA
Pressure: 30.13"   Gusts: NA
Location:  45.32°N, 85.26°W
Report Text: KCVX 271034Z AUTO 00000KT 10SM CLR M09/M12 A3013 RMK AO2 T10951121
Loading
Personal Weather Stations






























Interactive Weather Map New forecast layout! Learn more

10-Day Weather Forecast

Advertisements
Track Severe Weather on mobile